createdAt,value
2017-11-14T00:00:34.583Z,0.00
2017-11-14T00:03:02.038Z,0.00
2017-11-14T00:05:29.495Z,0.10
2017-11-14T00:07:56.951Z,0.10
2017-11-14T00:10:24.435Z,0.30
2017-11-14T00:12:51.896Z,0.50
2017-11-14T00:15:19.455Z,0.70
2017-11-14T00:17:46.910Z,0.60
2017-11-14T00:20:14.366Z,0.50
2017-11-14T00:22:41.923Z,0.40
2017-11-14T00:25:09.482Z,0.30
2017-11-14T00:27:36.946Z,0.30
2017-11-14T00:30:05.168Z,0.20
2017-11-14T00:32:32.639Z,0.20
2017-11-14T00:35:00.104Z,0.20
2017-11-14T00:37:27.558Z,0.10
2017-11-14T00:39:55.024Z,0.00
2017-11-14T00:42:22.491Z,0.10
2017-11-14T00:44:49.955Z,0.20
2017-11-14T00:47:17.455Z,0.20
2017-11-14T00:49:45.678Z,0.10
2017-11-14T00:52:13.137Z,0.20
2017-11-14T00:54:40.599Z,0.30
2017-11-14T00:57:08.051Z,0.40
2017-11-14T00:59:35.515Z,0.60
2017-11-14T01:02:02.974Z,0.50
2017-11-14T01:04:30.439Z,0.50
2017-11-14T01:06:57.891Z,0.40
2017-11-14T01:09:25.447Z,0.40
2017-11-14T01:11:52.898Z,0.50
2017-11-14T01:14:20.377Z,0.40
2017-11-14T01:16:47.827Z,0.30
2017-11-14T01:19:15.296Z,0.30
2017-11-14T01:21:42.751Z,0.20
2017-11-14T01:24:11.007Z,0.30
2017-11-14T01:26:38.466Z,0.20
2017-11-14T01:29:05.933Z,0.30
2017-11-14T01:31:33.472Z,0.30
2017-11-14T01:34:00.939Z,0.30
2017-11-14T01:36:28.383Z,0.30
2017-11-14T01:38:55.846Z,0.30
2017-11-14T01:41:23.295Z,0.60
2017-11-14T01:43:50.763Z,0.60
2017-11-14T01:46:18.211Z,0.60
2017-11-14T01:48:45.658Z,0.80
2017-11-14T01:51:13.130Z,1.00
2017-11-14T01:53:40.581Z,1.40
2017-11-14T01:56:08.042Z,1.20
2017-11-14T01:58:35.499Z,1.00
2017-11-14T02:01:03.734Z,0.60
2017-11-14T02:03:31.187Z,0.60
2017-11-14T02:05:58.649Z,0.50
2017-11-14T02:08:26.094Z,0.50
2017-11-14T02:10:53.562Z,0.50
2017-11-14T02:13:21.024Z,0.40
2017-11-14T02:15:48.479Z,0.50
2017-11-14T02:18:15.958Z,0.50
2017-11-14T02:20:43.387Z,0.70
2017-11-14T02:23:10.881Z,0.90
2017-11-14T02:25:38.333Z,1.00
2017-11-14T02:28:05.787Z,1.10
2017-11-14T02:30:33.243Z,1.00
2017-11-14T02:33:00.710Z,1.10
2017-11-14T02:35:28.265Z,0.90
2017-11-14T02:37:55.718Z,0.90
2017-11-14T02:40:23.176Z,1.00
2017-11-14T02:42:50.631Z,1.10
2017-11-14T02:45:18.123Z,1.00
2017-11-14T02:47:46.361Z,0.90
2017-11-14T02:50:13.822Z,0.90
2017-11-14T02:52:41.284Z,0.80
2017-11-14T02:55:08.844Z,0.70
2017-11-14T02:57:37.823Z,0.70
2017-11-14T03:00:05.393Z,0.60
2017-11-14T03:02:32.863Z,0.70
2017-11-14T03:05:01.081Z,0.80
2017-11-14T03:07:28.575Z,0.80
2017-11-14T03:09:56.030Z,0.70
2017-11-14T03:12:23.497Z,0.80
2017-11-14T03:14:52.451Z,0.80
2017-11-14T03:17:19.914Z,0.80
2017-11-14T03:19:47.368Z,0.80
2017-11-14T03:22:14.834Z,0.90
2017-11-14T03:24:42.295Z,1.00
2017-11-14T03:27:10.754Z,1.00
2017-11-14T03:29:38.263Z,1.20
2017-11-14T03:32:05.729Z,1.30
2017-11-14T03:34:33.949Z,1.40
2017-11-14T03:37:01.407Z,1.40
2017-11-14T03:39:28.862Z,1.40
2017-11-14T03:41:56.321Z,1.50
2017-11-14T03:44:23.777Z,1.50
2017-11-14T03:46:52.289Z,1.50
2017-11-14T03:49:19.843Z,1.40
2017-11-14T03:51:47.304Z,1.40
2017-11-14T03:54:14.763Z,1.60
2017-11-14T03:56:42.214Z,1.70
2017-11-14T03:59:09.674Z,1.70
2017-11-14T04:01:37.128Z,1.40
2017-11-14T04:04:04.683Z,1.20
2017-11-14T04:06:32.248Z,1.20
2017-11-14T04:08:59.719Z,1.20
2017-11-14T04:11:27.169Z,1.20
2017-11-14T04:13:54.635Z,1.20
2017-11-14T04:16:22.083Z,1.20
2017-11-14T04:18:49.548Z,1.20
2017-11-14T04:21:17.083Z,1.10
2017-11-14T04:23:44.542Z,1.10
2017-11-14T04:26:11.998Z,1.10
2017-11-14T04:28:39.501Z,1.10
2017-11-14T04:31:06.959Z,1.10
2017-11-14T04:33:34.410Z,1.10
2017-11-14T04:36:02.643Z,1.00
2017-11-14T04:38:30.102Z,1.00
2017-11-14T04:40:57.584Z,1.00
2017-11-14T04:43:25.031Z,1.00
2017-11-14T04:45:54.007Z,1.10
2017-11-14T04:48:21.456Z,1.10
2017-11-14T04:50:48.917Z,1.20
2017-11-14T04:53:16.376Z,1.40
2017-11-14T04:55:43.834Z,1.70
2017-11-14T04:58:11.292Z,1.80
2017-11-14T05:00:38.841Z,1.80
2017-11-14T05:03:06.411Z,1.70
2017-11-14T05:05:35.715Z,1.70
2017-11-14T05:08:03.165Z,1.60
2017-11-14T05:10:30.632Z,1.60
2017-11-14T05:12:58.082Z,1.70
2017-11-14T05:15:25.542Z,1.60
2017-11-14T05:17:52.999Z,1.50
2017-11-14T05:20:20.451Z,1.50
2017-11-14T05:22:47.915Z,1.50
2017-11-14T05:25:18.239Z,1.50
2017-11-14T05:27:45.698Z,1.60
2017-11-14T05:30:13.151Z,1.60
2017-11-14T05:32:40.612Z,1.70
2017-11-14T05:35:08.063Z,1.80
2017-11-14T05:37:35.522Z,1.70
2017-11-14T05:40:02.967Z,2.00
2017-11-14T05:42:30.430Z,2.00
2017-11-14T05:44:57.891Z,2.10
2017-11-14T05:47:25.439Z,2.20
2017-11-14T05:49:52.998Z,2.20
2017-11-14T05:54:55.059Z,2.60
2017-11-14T05:57:22.509Z,2.60
2017-11-14T05:59:49.975Z,2.30
2017-11-14T06:02:17.444Z,2.00
2017-11-14T06:04:44.888Z,1.90
2017-11-14T06:07:12.343Z,1.90
2017-11-14T06:09:39.807Z,1.90
2017-11-14T06:12:07.268Z,1.90
2017-11-14T06:14:34.738Z,1.90
2017-11-14T06:17:02.194Z,1.90
2017-11-14T06:19:29.654Z,1.90
2017-11-14T06:21:57.199Z,2.00
2017-11-14T06:24:24.756Z,2.00
2017-11-14T06:26:52.206Z,2.00
2017-11-14T06:29:19.660Z,2.00
2017-11-14T06:31:47.118Z,2.00
2017-11-14T06:34:14.573Z,2.20
2017-11-14T06:36:42.038Z,2.30
2017-11-14T06:39:09.486Z,2.50
2017-11-14T06:41:37.059Z,2.60
2017-11-14T06:44:04.507Z,2.70
2017-11-14T06:46:32.076Z,2.50
2017-11-14T06:48:59.514Z,2.40
2017-11-14T06:51:26.977Z,2.30
2017-11-14T06:53:54.428Z,2.30
2017-11-14T06:56:21.893Z,2.30
2017-11-14T06:58:49.343Z,2.20
2017-11-14T07:01:16.802Z,2.30
2017-11-14T07:03:44.245Z,2.30
2017-11-14T07:06:11.859Z,2.30
2017-11-14T07:08:40.074Z,2.20
2017-11-14T07:11:07.535Z,2.10
2017-11-14T07:13:34.984Z,2.40
2017-11-14T07:16:02.473Z,2.70
2017-11-14T07:18:30.042Z,2.90
2017-11-14T07:20:57.495Z,2.90
2017-11-14T07:23:24.946Z,2.90
2017-11-14T07:25:52.425Z,2.50
2017-11-14T07:28:19.878Z,2.30
2017-11-14T07:30:47.336Z,2.30
2017-11-14T07:33:14.796Z,2.30
2017-11-14T07:35:42.249Z,2.30
2017-11-14T07:38:09.711Z,2.30
2017-11-14T07:40:37.930Z,2.30
2017-11-14T07:43:05.387Z,2.30
2017-11-14T07:45:32.839Z,2.30
2017-11-14T07:48:00.331Z,2.20
2017-11-14T07:50:27.782Z,2.30
2017-11-14T07:52:55.238Z,2.20
2017-11-14T07:55:22.802Z,2.20
2017-11-14T07:57:50.264Z,2.30
2017-11-14T08:00:17.704Z,2.40
2017-11-14T08:02:45.162Z,2.40
2017-11-14T08:05:12.615Z,2.50
2017-11-14T08:07:40.183Z,2.60
2017-11-14T08:10:07.639Z,2.60
2017-11-14T08:12:35.123Z,2.70
2017-11-14T08:15:02.581Z,2.70
2017-11-14T08:17:30.807Z,2.80
2017-11-14T08:19:58.267Z,2.80
2017-11-14T08:22:25.718Z,2.90
2017-11-14T08:24:53.182Z,3.00
2017-11-14T08:27:20.630Z,3.30
2017-11-14T08:29:48.089Z,3.40
2017-11-14T08:32:15.541Z,3.50
2017-11-14T08:34:42.998Z,3.80
2017-11-14T08:37:10.459Z,3.90
2017-11-14T08:39:37.915Z,4.10
2017-11-14T08:42:05.372Z,4.60
2017-11-14T08:44:32.830Z,4.80
2017-11-14T08:47:00.290Z,4.70
2017-11-14T08:49:27.753Z,4.50
2017-11-14T08:51:55.224Z,4.70
2017-11-14T08:54:22.693Z,4.80
2017-11-14T08:56:50.243Z,5.00
2017-11-14T08:59:17.696Z,5.00
2017-11-14T09:01:45.146Z,5.00
2017-11-14T09:04:12.602Z,5.00
2017-11-14T09:06:40.050Z,5.00
2017-11-14T09:09:07.500Z,4.70
2017-11-14T09:11:34.954Z,4.70
2017-11-14T09:14:02.408Z,4.50
2017-11-14T09:16:29.861Z,4.40
2017-11-14T09:18:57.320Z,4.50
2017-11-14T09:21:24.798Z,4.60
2017-11-14T09:23:52.247Z,4.80
2017-11-14T09:26:19.711Z,4.90
2017-11-14T09:28:47.159Z,5.20
2017-11-14T09:31:14.614Z,5.50
2017-11-14T09:33:42.058Z,5.50
2017-11-14T09:36:09.516Z,5.70
2017-11-14T09:38:36.971Z,5.80
2017-11-14T09:41:04.437Z,6.00
2017-11-14T09:43:31.915Z,6.10
2017-11-14T09:45:59.370Z,6.30
2017-11-14T09:48:26.818Z,6.30
2017-11-14T09:50:54.281Z,6.10
2017-11-14T09:53:21.826Z,6.00
2017-11-14T09:55:49.318Z,6.10
2017-11-14T09:58:16.770Z,6.10
2017-11-14T10:00:44.318Z,6.00
2017-11-14T10:03:11.771Z,5.80
2017-11-14T10:05:39.222Z,5.90
2017-11-14T10:08:06.710Z,6.00
2017-11-14T10:10:34.162Z,5.80
2017-11-14T10:13:01.624Z,5.90
2017-11-14T10:15:29.154Z,5.90
2017-11-14T10:17:56.614Z,6.00
2017-11-14T10:20:24.062Z,6.10
2017-11-14T10:22:51.631Z,6.10
2017-11-14T10:25:19.083Z,6.10
2017-11-14T10:27:46.544Z,6.10
2017-11-14T10:30:13.997Z,5.90
2017-11-14T10:32:41.464Z,5.70
2017-11-14T10:35:09.015Z,5.60
2017-11-14T10:37:36.683Z,5.70
2017-11-14T10:40:04.131Z,5.80
2017-11-14T10:42:31.722Z,5.90
2017-11-14T10:44:59.970Z,6.50
2017-11-14T10:47:27.432Z,6.50
2017-11-14T10:49:54.983Z,6.50
2017-11-14T10:52:22.448Z,6.60
2017-11-14T10:54:50.003Z,6.50
2017-11-14T10:57:17.462Z,6.60
2017-11-14T10:59:45.010Z,6.50
2017-11-14T11:02:12.482Z,6.60
2017-11-14T11:04:41.440Z,7.20
2017-11-14T11:07:08.927Z,7.20
2017-11-14T11:09:36.384Z,7.50
2017-11-14T11:12:03.939Z,7.60
2017-11-14T11:14:32.175Z,7.80
2017-11-14T11:16:59.622Z,7.70
2017-11-14T11:19:27.079Z,7.60
2017-11-14T11:21:54.535Z,7.60
2017-11-14T11:24:22.003Z,7.50
2017-11-14T11:26:49.447Z,7.30
2017-11-14T11:29:16.950Z,7.00
2017-11-14T11:31:44.511Z,6.70
2017-11-14T11:34:12.018Z,6.70
2017-11-14T11:36:39.532Z,6.90
2017-11-14T11:39:07.087Z,6.90
2017-11-14T11:41:34.532Z,6.90
2017-11-14T11:44:02.082Z,7.00
2017-11-14T11:46:29.535Z,7.10
2017-11-14T11:48:56.994Z,6.90
2017-11-14T11:51:24.441Z,7.00
2017-11-14T11:53:51.895Z,7.30
2017-11-14T11:56:19.388Z,7.50
2017-11-14T11:58:46.854Z,7.60
2017-11-14T12:01:14.307Z,7.50
2017-11-14T12:03:42.546Z,7.50
2017-11-14T12:06:10.026Z,7.50
2017-11-14T12:08:37.484Z,7.60
2017-11-14T12:11:04.945Z,7.70
2017-11-14T12:13:32.496Z,7.70
2017-11-14T12:16:00.058Z,7.40
2017-11-14T12:18:27.519Z,7.50
2017-11-14T12:20:54.979Z,7.60
2017-11-14T12:23:22.439Z,7.50
2017-11-14T12:25:49.898Z,7.60
2017-11-14T12:28:17.449Z,7.50
2017-11-14T12:30:44.909Z,7.70
2017-11-14T12:33:12.363Z,8.00
2017-11-14T12:35:39.830Z,8.30
2017-11-14T12:38:07.291Z,8.50
2017-11-14T12:40:35.516Z,8.50
2017-11-14T12:43:02.974Z,8.50
2017-11-14T12:45:30.467Z,8.80
2017-11-14T12:47:57.914Z,9.00
2017-11-14T12:50:25.372Z,8.90
2017-11-14T12:52:52.936Z,8.80
2017-11-14T12:55:20.416Z,8.50
2017-11-14T12:57:48.632Z,8.30
2017-11-14T13:00:16.078Z,8.30
2017-11-14T13:02:43.536Z,7.90
2017-11-14T13:05:10.978Z,7.90
2017-11-14T13:07:38.487Z,8.30
2017-11-14T13:10:05.947Z,8.50
2017-11-14T13:12:33.416Z,8.10
2017-11-14T13:15:00.874Z,8.00
2017-11-14T13:17:28.419Z,8.20
2017-11-14T13:19:55.875Z,8.30
2017-11-14T13:22:23.342Z,8.30
2017-11-14T13:24:50.891Z,8.30
2017-11-14T13:27:18.351Z,7.90
2017-11-14T13:29:45.807Z,7.80
2017-11-14T13:32:13.267Z,7.90
2017-11-14T13:34:40.726Z,8.00
2017-11-14T13:37:08.194Z,8.00
2017-11-14T13:39:35.653Z,7.60
2017-11-14T13:42:03.111Z,7.50
2017-11-14T13:44:31.329Z,7.20
2017-11-14T13:46:58.830Z,7.20
2017-11-14T13:49:26.387Z,7.20
2017-11-14T13:51:53.861Z,7.10
2017-11-14T13:54:21.298Z,7.30
2017-11-14T13:56:48.784Z,7.30
2017-11-14T13:59:16.996Z,7.00
2017-11-14T14:01:44.451Z,7.00
2017-11-14T14:04:11.957Z,6.80
2017-11-14T14:06:39.412Z,6.70
2017-11-14T14:09:06.863Z,6.80
2017-11-14T14:11:34.403Z,6.80
2017-11-14T14:14:01.862Z,6.90
2017-11-14T14:16:29.414Z,6.90
2017-11-14T14:18:56.879Z,6.90
2017-11-14T14:21:24.453Z,6.80
2017-11-14T14:23:51.906Z,6.80
2017-11-14T14:26:19.363Z,6.70
2017-11-14T14:28:46.826Z,6.80
2017-11-14T14:31:14.289Z,6.80
2017-11-14T14:33:41.823Z,6.70
2017-11-14T14:36:09.274Z,6.50
2017-11-14T14:38:36.739Z,6.40
2017-11-14T14:41:04.184Z,6.40
2017-11-14T14:43:31.656Z,6.60
2017-11-14T14:45:59.206Z,6.60
2017-11-14T14:48:26.672Z,6.40
2017-11-14T14:50:54.119Z,6.50
2017-11-14T14:53:21.580Z,6.50
2017-11-14T14:55:49.138Z,6.40
2017-11-14T14:58:16.590Z,6.40
2017-11-14T15:00:44.061Z,6.20
2017-11-14T15:03:11.605Z,6.00
2017-11-14T15:05:39.066Z,5.90
2017-11-14T15:08:06.515Z,5.80
2017-11-14T15:10:33.975Z,5.70
2017-11-14T15:13:01.427Z,5.60
2017-11-14T15:15:28.994Z,5.40
2017-11-14T15:17:56.455Z,5.40
2017-11-14T15:20:23.919Z,5.30
2017-11-14T15:22:51.375Z,5.30
2017-11-14T15:25:18.831Z,5.10
2017-11-14T15:27:46.283Z,5.00
2017-11-14T15:30:13.748Z,4.80
2017-11-14T15:32:41.290Z,4.70
2017-11-14T15:35:08.746Z,4.60
2017-11-14T15:37:36.195Z,4.40
2017-11-14T15:40:03.654Z,4.40
2017-11-14T15:42:31.106Z,4.30
2017-11-14T15:44:58.607Z,4.20
2017-11-14T15:47:26.142Z,4.10
2017-11-14T15:49:53.592Z,4.00
2017-11-14T15:52:21.147Z,3.90
2017-11-14T15:54:48.595Z,3.90
2017-11-14T15:57:16.051Z,4.00
2017-11-14T15:59:43.523Z,4.00
2017-11-14T16:02:11.078Z,4.20
2017-11-14T16:04:38.548Z,4.20
2017-11-14T16:07:06.095Z,4.10
2017-11-14T16:09:33.548Z,4.00
2017-11-14T16:12:01.007Z,3.90
2017-11-14T16:14:28.462Z,3.80
2017-11-14T16:16:56.023Z,3.90
2017-11-14T16:19:23.463Z,3.80
2017-11-14T16:21:50.928Z,3.80
2017-11-14T16:24:18.402Z,3.70
2017-11-14T16:26:45.855Z,3.60
2017-11-14T16:29:13.301Z,3.50
2017-11-14T16:31:40.758Z,3.40
2017-11-14T16:34:08.211Z,3.40
2017-11-14T16:36:35.774Z,3.30
2017-11-14T16:39:03.231Z,3.30
2017-11-14T16:41:30.697Z,3.00
2017-11-14T16:43:58.143Z,2.80
2017-11-14T16:46:25.707Z,2.80
2017-11-14T16:48:53.150Z,2.70
2017-11-14T16:51:20.606Z,2.70
2017-11-14T16:53:48.062Z,2.60
2017-11-14T16:56:15.519Z,2.60
2017-11-14T16:58:42.993Z,2.60
2017-11-14T17:01:10.442Z,2.50
2017-11-14T17:03:37.890Z,2.50
2017-11-14T17:06:05.354Z,2.60
2017-11-14T17:08:32.817Z,2.60
2017-11-14T17:11:00.267Z,2.60
2017-11-14T17:13:27.732Z,2.50
2017-11-14T17:15:55.192Z,2.50
2017-11-14T17:18:22.641Z,2.50
2017-11-14T17:20:50.090Z,2.50
2017-11-14T17:23:17.536Z,2.50
2017-11-14T17:25:44.991Z,2.50
2017-11-14T17:28:12.448Z,2.60
2017-11-14T17:30:39.903Z,2.60
2017-11-14T17:33:07.357Z,2.60
2017-11-14T17:35:34.814Z,2.40
2017-11-14T17:38:02.307Z,2.40
2017-11-14T17:40:29.754Z,2.30
2017-11-14T17:42:57.206Z,2.30
2017-11-14T17:45:24.766Z,2.20
2017-11-14T17:47:52.224Z,2.20
2017-11-14T17:50:19.675Z,2.10
2017-11-14T17:52:47.242Z,2.00
2017-11-14T17:55:14.693Z,1.90
2017-11-14T17:57:42.153Z,1.90
2017-11-14T18:00:09.603Z,1.90
2017-11-14T18:02:37.059Z,1.80
2017-11-14T18:05:04.514Z,1.90
2017-11-14T18:07:31.986Z,1.90
2017-11-14T18:09:59.443Z,1.90
2017-11-14T18:12:26.899Z,2.00
2017-11-14T18:14:54.351Z,1.90
2017-11-14T18:17:21.813Z,1.80
2017-11-14T18:19:49.257Z,1.70
2017-11-14T18:22:16.758Z,1.70
2017-11-14T18:24:45.003Z,1.60
2017-11-14T18:27:12.460Z,1.60
2017-11-14T18:29:39.918Z,1.50
2017-11-14T18:32:07.367Z,1.50
2017-11-14T18:34:34.823Z,1.40
2017-11-14T18:37:02.278Z,1.20
2017-11-14T18:39:29.733Z,1.10
2017-11-14T18:41:57.189Z,1.00
2017-11-14T18:44:24.651Z,0.90
2017-11-14T18:46:52.115Z,0.90
2017-11-14T18:49:19.574Z,0.80
2017-11-14T18:51:47.032Z,0.90
2017-11-14T18:54:14.588Z,0.90
2017-11-14T18:56:42.150Z,0.90
2017-11-14T18:59:09.604Z,0.80
2017-11-14T19:01:37.060Z,0.80
2017-11-14T19:04:04.514Z,0.80
2017-11-14T19:06:31.970Z,0.70
2017-11-14T19:09:01.158Z,0.80
2017-11-14T19:11:28.719Z,0.80
2017-11-14T19:13:56.190Z,0.90
2017-11-14T19:16:23.643Z,1.00
2017-11-14T19:18:51.099Z,1.10
2017-11-14T19:21:18.564Z,1.00
2017-11-14T19:23:46.892Z,1.00
2017-11-14T19:26:14.345Z,1.00
2017-11-14T19:28:41.837Z,1.00
2017-11-14T19:31:09.295Z,1.00
2017-11-14T19:33:36.747Z,0.90
2017-11-14T19:36:04.202Z,0.90
2017-11-14T19:38:31.659Z,0.80
2017-11-14T19:40:59.126Z,0.60
2017-11-14T19:43:26.577Z,0.60
2017-11-14T19:45:54.032Z,0.60
2017-11-14T19:48:21.476Z,0.50
2017-11-14T19:50:48.945Z,0.50
2017-11-14T19:53:16.391Z,0.50
2017-11-14T19:55:43.852Z,0.60
2017-11-14T19:58:11.303Z,0.50
2017-11-14T20:00:38.763Z,0.60
2017-11-14T20:03:06.395Z,0.60
2017-11-14T20:05:33.886Z,0.70
2017-11-14T20:08:01.350Z,0.90
2017-11-14T20:10:28.794Z,0.90
2017-11-14T20:12:56.253Z,0.80
2017-11-14T20:15:23.713Z,0.70
2017-11-14T20:17:51.166Z,0.70
2017-11-14T20:20:18.611Z,0.60
2017-11-14T20:22:46.079Z,0.50
2017-11-14T20:25:13.533Z,0.40
2017-11-14T20:27:41.211Z,0.30
2017-11-14T20:30:10.166Z,0.20
2017-11-14T20:32:37.647Z,0.20
2017-11-14T20:35:05.107Z,0.20
2017-11-14T20:37:32.568Z,0.20
2017-11-14T20:40:00.018Z,0.30
2017-11-14T20:42:27.638Z,0.30
2017-11-14T20:44:55.085Z,0.20
2017-11-14T20:47:22.546Z,0.20
2017-11-14T20:49:50.002Z,0.20
2017-11-14T20:52:18.219Z,0.10
2017-11-14T20:54:45.667Z,0.20
2017-11-14T20:57:13.147Z,0.20
2017-11-14T20:59:40.595Z,0.10
2017-11-14T21:02:08.159Z,0.00
2017-11-14T21:04:35.614Z,0.10
2017-11-14T21:07:03.074Z,0.10
2017-11-14T21:09:30.627Z,0.00
2017-11-14T21:11:58.086Z,-0.10
2017-11-14T21:14:25.543Z,0.00
2017-11-14T21:16:53.101Z,0.00
2017-11-14T21:19:20.560Z,0.10
2017-11-14T21:21:48.008Z,0.10
2017-11-14T21:24:15.474Z,0.00
2017-11-14T21:26:42.950Z,-0.10
2017-11-14T21:29:10.396Z,-0.10
2017-11-14T21:31:37.945Z,-0.20
2017-11-14T21:34:05.407Z,-0.20
2017-11-14T21:36:32.857Z,-0.10
2017-11-14T21:39:00.318Z,-0.10
2017-11-14T21:41:27.777Z,-0.10
2017-11-14T21:43:55.234Z,-0.20
2017-11-14T21:46:22.784Z,-0.20
2017-11-14T21:48:50.270Z,-0.20
2017-11-14T21:51:18.482Z,-0.20
2017-11-14T21:53:45.934Z,-0.20
2017-11-14T21:56:13.390Z,-0.20
2017-11-14T21:58:40.848Z,-0.10
2017-11-14T22:02:37.322Z,-0.10
2017-11-14T22:05:04.774Z,0.00
2017-11-14T22:07:32.231Z,-0.10
2017-11-14T22:09:59.796Z,-0.20
2017-11-14T22:12:27.247Z,-0.10
2017-11-14T22:14:54.703Z,0.10
2017-11-14T22:17:22.167Z,0.00
2017-11-14T22:19:49.626Z,-0.10
2017-11-14T22:22:17.117Z,0.00
2017-11-14T22:24:45.337Z,0.00
2017-11-14T22:27:12.788Z,0.00
2017-11-14T22:29:40.250Z,-0.20
2017-11-14T22:32:07.711Z,-0.30
2017-11-14T22:34:35.163Z,-0.30
2017-11-14T22:37:02.620Z,-0.20
2017-11-14T22:39:30.078Z,-0.20
2017-11-14T22:41:57.533Z,-0.20
2017-11-14T22:44:24.990Z,-0.20
2017-11-14T22:46:52.450Z,-0.30
2017-11-14T22:49:19.919Z,-0.30
2017-11-14T22:51:47.377Z,-0.30
2017-11-14T22:54:14.936Z,-0.40
2017-11-14T22:56:42.402Z,-0.40
2017-11-14T22:59:09.977Z,-0.30
2017-11-14T23:01:37.434Z,-0.30
2017-11-14T23:04:05.654Z,-0.40
2017-11-14T23:06:33.113Z,-0.40
2017-11-14T23:09:00.569Z,-0.40
2017-11-14T23:11:28.031Z,-0.40
2017-11-14T23:13:55.486Z,-0.40
2017-11-14T23:16:22.934Z,-0.50
2017-11-14T23:18:50.394Z,-0.50
2017-11-14T23:21:17.861Z,-0.50
2017-11-14T23:23:45.306Z,-0.50
2017-11-14T23:26:12.791Z,-0.50
2017-11-14T23:28:40.241Z,-0.40
2017-11-14T23:31:07.701Z,-0.40
2017-11-14T23:33:35.157Z,-0.40
2017-11-14T23:36:02.605Z,-0.40
2017-11-14T23:38:30.067Z,-0.20
2017-11-14T23:40:57.519Z,0.00
2017-11-14T23:43:24.983Z,0.10
2017-11-14T23:45:52.439Z,-0.10
2017-11-14T23:48:20.003Z,-0.20
2017-11-14T23:50:47.459Z,-0.40
2017-11-14T23:53:14.926Z,-0.50
2017-11-14T23:55:42.378Z,-0.50
2017-11-14T23:58:09.932Z,-0.60
